createdAt,value
2022-10-11T00:00:25.644Z,15.33
2022-10-11T00:02:52.718Z,15.17
2022-10-11T00:05:19.671Z,13.37
2022-10-11T00:07:46.721Z,13.40
2022-10-11T00:10:13.716Z,15.93
2022-10-11T00:12:41.331Z,13.23
2022-10-11T00:15:09.952Z,13.70
2022-10-11T00:17:37.002Z,16.67
2022-10-11T00:20:04.841Z,18.23
2022-10-11T00:22:32.192Z,18.07
2022-10-11T00:24:59.360Z,16.73
2022-10-11T00:27:26.610Z,20.60
2022-10-11T00:29:53.831Z,21.40
2022-10-11T00:32:20.926Z,19.50
2022-10-11T00:34:48.230Z,21.67
2022-10-11T00:37:15.429Z,21.03
2022-10-11T00:39:42.650Z,19.23
2022-10-11T00:42:14.649Z,20.97
2022-10-11T00:44:47.860Z,21.30
2022-10-11T00:47:18.948Z,19.40
2022-10-11T00:49:55.996Z,19.10
2022-10-11T00:52:37.779Z,24.40
2022-10-11T00:55:17.973Z,18.33
2022-10-11T00:57:50.060Z,19.47
2022-10-11T01:00:17.280Z,22.43
2022-10-11T01:02:44.595Z,26.23
2022-10-11T01:05:30.492Z,21.67
2022-10-11T01:08:00.406Z,22.67
2022-10-11T01:10:28.421Z,22.60
2022-10-11T01:13:15.088Z,23.77
2022-10-11T01:15:42.543Z,22.60
2022-10-11T01:18:26.450Z,22.17
2022-10-11T01:20:59.289Z,25.07
2022-10-11T01:23:51.171Z,21.17
2022-10-11T01:26:37.112Z,22.00
2022-10-11T01:29:04.195Z,19.93
2022-10-11T01:31:54.130Z,20.20
2022-10-11T01:34:47.779Z,23.50
2022-10-11T01:37:41.504Z,21.77
2022-10-11T01:40:23.250Z,21.47
2022-10-11T01:42:52.586Z,20.93
2022-10-11T01:45:20.897Z,16.53
2022-10-11T01:47:48.327Z,20.73
2022-10-11T01:50:52.111Z,18.43
2022-10-11T01:53:56.730Z,15.60
2022-10-11T01:57:02.061Z,16.80
2022-10-11T01:59:58.461Z,16.67
2022-10-11T02:02:45.797Z,17.77
2022-10-11T02:05:18.799Z,18.93
2022-10-11T02:07:45.753Z,15.80
2022-10-11T02:10:20.378Z,14.97
2022-10-11T02:12:58.418Z,14.00
2022-10-11T02:15:29.225Z,13.60
2022-10-11T02:17:59.407Z,12.87
2022-10-11T02:20:28.636Z,13.53
2022-10-11T02:23:02.432Z,15.40
2022-10-11T02:25:32.672Z,13.23
2022-10-11T02:28:04.180Z,17.70
2022-10-11T02:30:32.385Z,9.20
2022-10-11T02:33:03.329Z,8.47
2022-10-11T02:35:35.660Z,11.20
2022-10-11T02:38:27.901Z,8.23
2022-10-11T02:41:06.471Z,11.17
2022-10-11T02:43:40.072Z,7.20
2022-10-11T02:46:09.300Z,8.67
2022-10-11T02:48:37.911Z,8.07
2022-10-11T02:51:05.357Z,5.63
2022-10-11T02:53:34.045Z,7.87
2022-10-11T02:56:01.184Z,11.10
2022-10-11T02:58:29.299Z,6.50
2022-10-11T03:00:56.454Z,6.57
2022-10-11T03:03:23.411Z,7.47
2022-10-11T03:05:50.545Z,7.10
2022-10-11T03:08:18.282Z,8.10
2022-10-11T03:10:45.724Z,7.70
2022-10-11T03:13:17.852Z,6.33
2022-10-11T03:16:07.221Z,9.17
2022-10-11T03:18:34.812Z,5.43
2022-10-11T03:21:04.853Z,9.57
2022-10-11T03:23:31.936Z,8.33
2022-10-11T03:25:58.839Z,8.20
2022-10-11T03:28:27.013Z,7.27
2022-10-11T03:30:53.990Z,6.37
2022-10-11T03:33:23.560Z,6.63
2022-10-11T03:35:50.841Z,7.73
2022-10-11T03:38:22.254Z,8.27
2022-10-11T03:40:49.815Z,6.87
2022-10-11T03:43:17.819Z,6.43
2022-10-11T03:45:44.962Z,7.77
2022-10-11T03:48:13.734Z,6.40
2022-10-11T03:50:40.841Z,8.37
2022-10-11T03:53:07.911Z,10.47
2022-10-11T03:55:35.009Z,6.90
2022-10-11T03:58:03.059Z,6.17
2022-10-11T04:00:30.210Z,6.90
2022-10-11T04:02:57.508Z,6.97
2022-10-11T04:05:24.629Z,7.00
2022-10-11T04:07:52.319Z,5.53
2022-10-11T04:10:19.400Z,5.93
2022-10-11T04:12:47.461Z,4.83
2022-10-11T04:15:14.740Z,6.60
2022-10-11T04:17:42.076Z,6.60
2022-10-11T04:20:10.620Z,6.60
2022-10-11T04:22:38.609Z,6.40
2022-10-11T04:25:07.791Z,6.67
2022-10-11T04:27:35.349Z,4.57
2022-10-11T04:30:02.418Z,6.40
2022-10-11T04:32:29.576Z,3.70
2022-10-11T04:34:57.179Z,7.40
2022-10-11T04:37:24.407Z,3.30
2022-10-11T04:39:51.566Z,5.47
2022-10-11T04:42:18.691Z,4.17
2022-10-11T04:44:45.873Z,2.77
2022-10-11T04:47:13.620Z,3.27
2022-10-11T04:49:40.826Z,4.37
2022-10-11T04:52:08.126Z,3.43
2022-10-11T04:54:35.494Z,3.10
2022-10-11T04:57:02.784Z,4.30
2022-10-11T04:59:30.029Z,2.23
2022-10-11T05:01:57.375Z,3.00
2022-10-11T05:04:24.665Z,3.23
2022-10-11T05:06:51.850Z,2.73
2022-10-11T05:09:19.008Z,4.10
2022-10-11T05:11:46.190Z,6.03
2022-10-11T05:14:13.312Z,3.27
2022-10-11T05:16:40.330Z,5.00
2022-10-11T05:19:07.503Z,2.73
2022-10-11T05:21:34.521Z,4.13
2022-10-11T05:24:01.670Z,3.70
2022-10-11T05:26:28.926Z,4.17
2022-10-11T05:28:56.529Z,3.73
2022-10-11T05:31:23.743Z,2.30
2022-10-11T05:33:51.013Z,3.27
2022-10-11T05:36:18.299Z,4.20
2022-10-11T05:38:45.507Z,2.40
2022-10-11T05:41:15.903Z,4.07
2022-10-11T05:43:44.785Z,3.57
2022-10-11T05:46:12.353Z,2.83
2022-10-11T05:48:39.582Z,4.60
2022-10-11T05:51:10.057Z,2.97
2022-10-11T05:53:38.365Z,4.03
2022-10-11T05:56:06.376Z,5.13
2022-10-11T05:58:33.806Z,4.23
2022-10-11T06:01:00.853Z,1.70
2022-10-11T06:03:28.348Z,4.87
2022-10-11T06:05:57.222Z,3.53
2022-10-11T06:08:24.716Z,2.97
2022-10-11T06:10:51.696Z,3.50
2022-10-11T06:13:18.836Z,3.03
2022-10-11T06:15:45.837Z,4.57
2022-10-11T06:18:16.165Z,3.73
2022-10-11T06:20:43.460Z,2.17
2022-10-11T06:23:10.696Z,3.13
2022-10-11T06:25:37.930Z,1.97
2022-10-11T06:28:05.199Z,3.03
2022-10-11T06:30:32.455Z,4.80
2022-10-11T06:33:04.484Z,4.27
2022-10-11T06:35:35.099Z,3.87
2022-10-11T06:38:02.299Z,1.90
2022-10-11T06:40:29.788Z,4.93
2022-10-11T06:42:56.985Z,3.47
2022-10-11T06:45:24.159Z,3.47
2022-10-11T06:47:51.329Z,3.20
2022-10-11T06:50:29.958Z,3.37
2022-10-11T06:53:08.186Z,3.13
2022-10-11T06:55:35.586Z,5.77
2022-10-11T06:58:02.879Z,6.43
2022-10-11T07:00:30.087Z,3.73
2022-10-11T07:02:57.518Z,4.27
2022-10-11T07:05:24.714Z,2.23
2022-10-11T07:07:52.137Z,3.03
2022-10-11T07:10:19.314Z,4.10
2022-10-11T07:12:48.663Z,4.10
2022-10-11T07:15:15.965Z,3.67
2022-10-11T07:17:43.294Z,2.80
2022-10-11T07:20:12.598Z,3.77
2022-10-11T07:22:39.806Z,4.40
2022-10-11T07:25:08.914Z,3.43
2022-10-11T07:27:36.137Z,2.83
2022-10-11T07:30:03.866Z,6.17
2022-10-11T07:32:31.581Z,4.33
2022-10-11T07:34:58.715Z,4.13
2022-10-11T07:37:26.019Z,3.70
2022-10-11T07:39:53.122Z,2.93
2022-10-11T07:42:21.114Z,3.77
2022-10-11T07:44:48.751Z,4.03
2022-10-11T07:47:16.616Z,4.47
2022-10-11T07:49:43.741Z,2.93
2022-10-11T07:52:11.448Z,2.97
2022-10-11T07:54:40.532Z,4.40
2022-10-11T07:57:07.832Z,2.17
2022-10-11T07:59:36.197Z,5.30
2022-10-11T08:02:03.485Z,3.00
2022-10-11T08:04:30.949Z,3.67
2022-10-11T08:06:58.159Z,3.23
2022-10-11T08:09:25.302Z,4.90
2022-10-11T08:11:52.805Z,4.23
2022-10-11T08:14:19.983Z,1.83
2022-10-11T08:16:47.226Z,2.97
2022-10-11T08:19:14.654Z,1.70
2022-10-11T08:21:41.977Z,5.03
2022-10-11T08:24:09.350Z,3.97
2022-10-11T08:26:36.568Z,4.20
2022-10-11T08:29:05.396Z,3.90
2022-10-11T08:31:34.939Z,5.07
2022-10-11T08:34:04.563Z,5.43
2022-10-11T08:36:32.483Z,1.07
2022-10-11T08:38:59.687Z,1.87
2022-10-11T08:41:39.530Z,3.23
2022-10-11T08:44:34.174Z,4.20
2022-10-11T08:47:21.940Z,3.10
2022-10-11T08:49:49.490Z,1.13
2022-10-11T08:52:19.281Z,3.30
2022-10-11T08:55:04.772Z,2.37
2022-10-11T08:57:35.561Z,2.70
2022-10-11T09:00:13.972Z,4.60
2022-10-11T09:03:10.610Z,3.73
2022-10-11T09:05:58.309Z,4.20
2022-10-11T09:08:43.370Z,2.80
2022-10-11T09:11:21.301Z,4.70
2022-10-11T09:14:07.231Z,5.90
2022-10-11T09:16:46.556Z,2.27
2022-10-11T09:19:27.481Z,4.63
2022-10-11T09:21:57.168Z,4.83
2022-10-11T09:25:01.072Z,2.97
2022-10-11T09:28:02.252Z,4.07
2022-10-11T09:30:29.976Z,3.27
2022-10-11T09:33:18.747Z,3.17
2022-10-11T09:35:50.037Z,3.53
2022-10-11T09:38:38.525Z,3.67
2022-10-11T09:41:15.476Z,4.50
2022-10-11T09:43:48.692Z,1.63
2022-10-11T09:46:44.849Z,1.60
2022-10-11T09:49:15.302Z,5.17
2022-10-11T09:51:49.773Z,5.37
2022-10-11T09:54:27.607Z,3.87
2022-10-11T09:56:55.154Z,4.37
2022-10-11T09:59:37.975Z,4.47
2022-10-11T10:02:14.684Z,4.53
2022-10-11T10:04:54.182Z,4.67
2022-10-11T10:07:21.608Z,4.50
2022-10-11T10:09:49.223Z,4.33
2022-10-11T10:12:24.034Z,1.93
2022-10-11T10:15:07.070Z,3.70
2022-10-11T10:17:36.171Z,3.63
2022-10-11T10:20:05.844Z,2.67
2022-10-11T10:22:35.897Z,3.20
2022-10-11T10:25:08.263Z,3.37
2022-10-11T10:27:36.189Z,4.30
2022-10-11T10:30:14.020Z,4.00
2022-10-11T10:32:53.902Z,7.30
2022-10-11T10:35:54.080Z,3.80
2022-10-11T10:38:32.423Z,2.93
2022-10-11T10:41:03.652Z,2.80
2022-10-11T10:43:36.984Z,2.27
2022-10-11T10:46:19.609Z,3.40
2022-10-11T10:52:36.825Z,2.60
2022-10-11T10:55:13.078Z,5.63
2022-10-11T10:58:09.904Z,4.23
2022-10-11T11:00:43.795Z,3.30
2022-10-11T11:03:34.361Z,4.57
2022-10-11T11:06:10.903Z,3.90
2022-10-11T11:09:02.415Z,3.10
2022-10-11T11:11:52.821Z,3.17
2022-10-11T11:14:50.479Z,5.83
2022-10-11T11:17:39.352Z,2.80
2022-10-11T11:20:32.045Z,2.63
2022-10-11T11:23:17.279Z,2.90
2022-10-11T11:25:52.704Z,2.67
2022-10-11T11:28:32.466Z,3.43
2022-10-11T11:31:24.628Z,3.33
2022-10-11T11:34:00.243Z,1.97
2022-10-11T11:36:48.938Z,6.07
2022-10-11T11:39:48.526Z,2.43
2022-10-11T11:42:23.474Z,1.50
2022-10-11T11:44:52.225Z,3.97
2022-10-11T11:47:28.781Z,2.13
2022-10-11T11:50:01.592Z,7.03
2022-10-11T11:52:36.249Z,3.40
2022-10-11T11:55:19.942Z,3.30
2022-10-11T11:58:15.986Z,1.40
2022-10-11T12:00:58.628Z,5.03
2022-10-11T12:03:32.201Z,1.93
2022-10-11T12:06:15.057Z,2.93
2022-10-11T12:08:46.100Z,3.10
2022-10-11T12:11:35.290Z,3.40
2022-10-11T12:14:23.501Z,2.47
2022-10-11T12:17:30.105Z,2.47
2022-10-11T12:20:10.577Z,2.93
2022-10-11T12:22:49.414Z,1.37
2022-10-11T12:25:18.533Z,2.90
2022-10-11T12:27:51.293Z,2.53
2022-10-11T12:30:55.738Z,3.50
2022-10-11T12:33:32.917Z,4.13
2022-10-11T12:36:22.172Z,2.27
2022-10-11T12:39:21.456Z,2.23
2022-10-11T12:41:51.564Z,4.63
2022-10-11T12:44:19.451Z,4.27
2022-10-11T12:46:55.371Z,2.60
2022-10-11T12:49:35.600Z,3.53
2022-10-11T12:52:24.419Z,3.67
2022-10-11T12:55:03.601Z,3.37
2022-10-11T12:57:46.381Z,4.53
2022-10-11T13:00:22.147Z,4.17
2022-10-11T13:02:50.044Z,2.47
2022-10-11T13:05:44.948Z,2.57
2022-10-11T13:08:22.747Z,2.67
2022-10-11T13:10:49.905Z,3.33
2022-10-11T13:13:37.941Z,3.63
2022-10-11T13:16:13.040Z,4.07
2022-10-11T13:18:49.625Z,2.00
2022-10-11T13:21:33.973Z,5.17
2022-10-11T13:24:04.023Z,2.43
2022-10-11T13:26:34.250Z,1.47
2022-10-11T13:29:02.128Z,2.30
2022-10-11T13:31:29.208Z,2.63
2022-10-11T13:33:59.398Z,6.90
2022-10-11T13:36:27.811Z,4.13
2022-10-11T13:39:00.831Z,4.70
2022-10-11T13:41:31.012Z,3.27
2022-10-11T13:44:00.591Z,2.67
2022-10-11T13:46:30.012Z,5.33
2022-10-11T13:49:06.983Z,2.90
2022-10-11T13:51:37.990Z,3.13
2022-10-11T13:54:12.912Z,2.57
2022-10-11T13:56:48.622Z,2.10
2022-10-11T13:59:24.885Z,1.50
2022-10-11T14:02:00.530Z,4.37
2022-10-11T14:04:29.937Z,3.40
2022-10-11T14:07:00.900Z,2.50
2022-10-11T14:09:30.408Z,4.53
2022-10-11T14:12:38.639Z,3.17
2022-10-11T14:15:23.968Z,1.57
2022-10-11T14:17:54.054Z,1.67
2022-10-11T14:20:40.391Z,2.40
2022-10-11T14:23:07.413Z,1.70
2022-10-11T14:25:34.937Z,3.83
2022-10-11T14:28:02.834Z,1.57
2022-10-11T14:30:31.767Z,2.13
2022-10-11T14:33:02.828Z,5.33
2022-10-11T14:35:34.795Z,2.63
2022-10-11T14:38:01.846Z,1.10
2022-10-11T14:40:31.208Z,2.43
2022-10-11T14:42:58.977Z,2.40
2022-10-11T14:45:26.115Z,1.47
2022-10-11T14:47:53.312Z,4.47
2022-10-11T14:50:28.831Z,2.47
2022-10-11T14:52:56.599Z,1.67
2022-10-11T14:55:24.667Z,2.83
2022-10-11T14:57:52.103Z,3.00
2022-10-11T15:00:29.880Z,2.37
2022-10-11T15:02:57.733Z,3.57
2022-10-11T15:05:31.180Z,4.73
2022-10-11T15:08:01.297Z,1.57
2022-10-11T15:10:33.828Z,3.23
2022-10-11T15:13:00.970Z,2.73
2022-10-11T15:15:30.868Z,2.57
2022-10-11T15:17:59.641Z,1.90
2022-10-11T15:20:32.673Z,3.70
2022-10-11T15:23:03.639Z,3.33
2022-10-11T15:25:31.685Z,2.00
2022-10-11T15:28:06.158Z,2.43
2022-10-11T15:30:41.088Z,1.97
2022-10-11T15:33:09.375Z,3.77
2022-10-11T15:35:36.575Z,2.50
2022-10-11T15:38:03.904Z,1.57
2022-10-11T15:40:33.880Z,1.30
2022-10-11T15:43:02.217Z,2.00
2022-10-11T15:45:29.997Z,1.33
2022-10-11T15:47:57.587Z,5.37
2022-10-11T15:50:34.718Z,1.27
2022-10-11T15:53:13.350Z,3.80
2022-10-11T15:55:43.589Z,2.23
2022-10-11T15:58:32.422Z,1.17
2022-10-11T16:01:02.212Z,1.13
2022-10-11T16:03:30.586Z,2.90
2022-10-11T16:06:04.609Z,3.37
2022-10-11T16:08:34.427Z,1.70
2022-10-11T16:11:02.088Z,2.63
2022-10-11T16:13:29.765Z,3.10
2022-10-11T16:15:57.042Z,5.67
2022-10-11T16:18:24.382Z,2.47
2022-10-11T16:20:52.674Z,1.57
2022-10-11T16:23:22.200Z,2.43
2022-10-11T16:26:01.163Z,1.30
2022-10-11T16:28:29.494Z,1.73
2022-10-11T16:30:56.942Z,2.00
2022-10-11T16:33:24.475Z,5.03
2022-10-11T16:35:52.711Z,1.17
2022-10-11T16:38:19.959Z,5.13
2022-10-11T16:40:47.575Z,4.13
2022-10-11T16:43:15.182Z,2.67
2022-10-11T16:45:42.708Z,3.40
2022-10-11T16:48:12.253Z,1.23
2022-10-11T16:50:39.918Z,0.57
2022-10-11T16:53:07.241Z,3.07
2022-10-11T16:55:35.640Z,2.43
2022-10-11T16:58:03.271Z,3.17
2022-10-11T17:00:30.655Z,1.90
2022-10-11T17:02:57.954Z,1.23
2022-10-11T17:05:25.428Z,2.03
2022-10-11T17:07:52.721Z,2.93
2022-10-11T17:10:19.860Z,3.87
2022-10-11T17:12:50.183Z,2.10
2022-10-11T17:15:17.739Z,2.17
2022-10-11T17:17:45.017Z,2.20
2022-10-11T17:20:12.522Z,2.17
2022-10-11T17:22:42.122Z,1.83
2022-10-11T17:25:09.743Z,3.07
2022-10-11T17:27:38.782Z,2.20
2022-10-11T17:30:11.066Z,3.50
2022-10-11T17:32:38.311Z,1.57
2022-10-11T17:35:05.856Z,2.13
2022-10-11T17:37:34.450Z,0.97
2022-10-11T17:40:01.653Z,1.43
2022-10-11T17:42:28.869Z,2.20
2022-10-11T17:44:56.490Z,2.70
2022-10-11T17:47:23.762Z,1.83
2022-10-11T17:49:52.386Z,2.40
2022-10-11T17:52:20.284Z,4.63
2022-10-11T17:54:47.538Z,4.53
2022-10-11T17:57:14.731Z,2.23
2022-10-11T17:59:42.072Z,2.67
2022-10-11T18:02:10.464Z,2.40
2022-10-11T18:04:38.556Z,1.90
2022-10-11T18:07:06.340Z,1.87
2022-10-11T18:09:40.532Z,4.10
2022-10-11T18:12:08.303Z,2.30
2022-10-11T18:14:35.702Z,0.83
2022-10-11T18:17:08.902Z,3.60
2022-10-11T18:19:36.117Z,1.00
2022-10-11T18:22:06.959Z,3.10
2022-10-11T18:24:34.985Z,1.80
2022-10-11T18:27:02.472Z,2.40
2022-10-11T18:29:30.690Z,1.87
2022-10-11T18:31:57.949Z,1.57
2022-10-11T18:34:25.114Z,5.70
2022-10-11T18:36:52.327Z,2.40
2022-10-11T18:39:21.545Z,2.43
2022-10-11T18:41:48.823Z,1.80
2022-10-11T18:44:16.466Z,1.97
2022-10-11T18:46:44.990Z,2.83
2022-10-11T18:49:13.813Z,1.27
2022-10-11T18:51:42.530Z,2.63
2022-10-11T18:54:14.060Z,2.83
2022-10-11T18:56:44.218Z,1.70
2022-10-11T18:59:14.116Z,3.87
2022-10-11T19:01:44.872Z,1.87
2022-10-11T19:04:16.107Z,4.47
2022-10-11T19:06:47.906Z,0.73
2022-10-11T19:09:24.526Z,2.63
2022-10-11T19:11:54.041Z,2.17
2022-10-11T19:14:25.707Z,2.37
2022-10-11T19:16:56.298Z,2.93
2022-10-11T19:19:27.742Z,1.17
2022-10-11T19:21:55.590Z,1.23
2022-10-11T19:24:24.646Z,2.27
2022-10-11T19:26:54.716Z,4.27
2022-10-11T19:29:26.214Z,2.40
2022-10-11T19:31:56.001Z,0.83
2022-10-11T19:34:32.014Z,3.03
2022-10-11T19:37:01.300Z,1.17
2022-10-11T19:39:29.827Z,3.60
2022-10-11T19:41:57.134Z,2.83
2022-10-11T19:44:24.771Z,1.87
2022-10-11T19:46:53.032Z,2.00
2022-10-11T19:49:24.938Z,2.63
2022-10-11T19:51:53.905Z,2.17
2022-10-11T19:54:21.299Z,2.17
2022-10-11T19:56:48.582Z,1.30
2022-10-11T19:59:16.568Z,2.57
2022-10-11T20:01:47.921Z,2.83
2022-10-11T20:04:39.684Z,2.67
2022-10-11T20:07:05.628Z,2.97
2022-10-11T20:09:32.843Z,2.07
2022-10-11T20:12:00.105Z,2.73
2022-10-11T20:14:27.878Z,1.13
2022-10-11T20:16:55.083Z,3.90
2022-10-11T20:19:27.755Z,2.47
2022-10-11T20:21:57.893Z,3.20
2022-10-11T20:24:27.677Z,2.50
2022-10-11T20:26:55.516Z,1.60
2022-10-11T20:29:25.642Z,2.30
2022-10-11T20:31:52.830Z,1.70
2022-10-11T20:34:20.099Z,3.77
2022-10-11T20:36:49.267Z,1.40
2022-10-11T20:39:18.360Z,2.17
2022-10-11T20:41:46.487Z,2.73
2022-10-11T20:44:16.357Z,2.73
2022-10-11T20:46:46.043Z,2.37
2022-10-11T20:49:13.633Z,2.20
2022-10-11T20:51:42.153Z,2.77
2022-10-11T20:54:10.537Z,3.17
2022-10-11T20:56:40.168Z,3.37
2022-10-11T20:59:08.342Z,2.60
2022-10-11T21:01:40.507Z,2.30
2022-10-11T21:04:10.548Z,2.47
2022-10-11T21:06:37.651Z,2.70
2022-10-11T21:09:09.331Z,3.90
2022-10-11T21:11:38.731Z,3.37
2022-10-11T21:14:07.071Z,1.23
2022-10-11T21:16:35.010Z,2.10
2022-10-11T21:19:03.683Z,3.37
2022-10-11T21:21:31.246Z,2.80
2022-10-11T21:24:02.598Z,4.20
2022-10-11T21:26:31.272Z,3.83
2022-10-11T21:29:04.187Z,1.20
2022-10-11T21:31:34.698Z,2.07
2022-10-11T21:34:02.753Z,2.13
2022-10-11T21:36:29.948Z,2.37
2022-10-11T21:38:57.238Z,2.47
2022-10-11T21:41:26.445Z,2.00
2022-10-11T21:43:54.009Z,2.67
2022-10-11T21:46:22.677Z,2.20
2022-10-11T21:48:50.370Z,2.00
2022-10-11T21:51:23.244Z,2.40
2022-10-11T21:53:51.220Z,6.53
2022-10-11T21:56:18.681Z,2.80
2022-10-11T21:58:49.938Z,2.00
2022-10-11T22:01:18.910Z,2.23
2022-10-11T22:03:46.784Z,3.90
2022-10-11T22:06:14.834Z,3.53
2022-10-11T22:08:41.873Z,3.10
2022-10-11T22:11:10.112Z,2.07
2022-10-11T22:13:38.592Z,2.40
2022-10-11T22:16:07.820Z,1.80
2022-10-11T22:18:35.470Z,2.57
2022-10-11T22:21:13.613Z,1.50
2022-10-11T22:23:43.231Z,4.03
2022-10-11T22:26:16.145Z,4.87
2022-10-11T22:28:43.553Z,3.03
2022-10-11T22:31:11.182Z,3.90
2022-10-11T22:33:40.273Z,0.90
2022-10-11T22:36:09.178Z,4.20
2022-10-11T22:38:37.718Z,2.67
2022-10-11T22:41:05.000Z,1.90
2022-10-11T22:43:32.464Z,4.80
2022-10-11T22:45:59.563Z,3.23
2022-10-11T22:48:26.975Z,3.33
2022-10-11T22:50:54.356Z,2.07
2022-10-11T22:53:22.763Z,1.93
2022-10-11T22:55:49.806Z,5.50
2022-10-11T22:58:18.053Z,4.07
2022-10-11T23:00:45.021Z,2.53
2022-10-11T23:03:16.879Z,3.50
2022-10-11T23:05:44.022Z,2.70
2022-10-11T23:08:11.869Z,5.47
2022-10-11T23:10:40.008Z,3.30
2022-10-11T23:13:07.271Z,1.47
2022-10-11T23:15:34.393Z,2.13
2022-10-11T23:18:01.371Z,2.70
2022-10-11T23:20:28.480Z,2.50
2022-10-11T23:22:55.406Z,2.53
2022-10-11T23:25:22.622Z,1.27
2022-10-11T23:27:49.721Z,2.73
2022-10-11T23:30:17.063Z,2.50
2022-10-11T23:32:44.021Z,3.03
2022-10-11T23:35:11.173Z,3.10
2022-10-11T23:37:38.457Z,2.57
2022-10-11T23:40:06.582Z,1.77
2022-10-11T23:42:33.624Z,2.43
2022-10-11T23:45:01.762Z,3.13
2022-10-11T23:47:28.860Z,3.60
2022-10-11T23:49:56.012Z,5.50
2022-10-11T23:52:22.965Z,1.43
2022-10-11T23:54:50.093Z,2.57
2022-10-11T23:57:17.223Z,1.60
2022-10-11T23:59:45.310Z,3.73
